Weather at Cameron House Hotel Seaplane Base

Public forecast

Using degrees Celsius for public forecast. Weather courtesy of forecast.io.

Closest aviation weather report (METAR) to Cameron House Hotel Seaplane Base

Closest report is Glasgow International Airport, 10.3 nm (19.1 km) SE. Retrieved 2021/10/28 13:20 UTC (22 minutes ago):

EGPF 281320Z AUTO 16006KT 140V200 9999 -RA SCT034 BKN041 12/10 Q0996

Closest aviation forecast (TAF) to Cameron House Hotel Seaplane Base

Closest forecast is Glasgow International Airport, 10.3 nm (19.1 km) SE. Retrieved 2021/10/28 12:00 UTC (2 hours ago):

TAF EGPF 281057Z 2812/2912 20005KT 9999 FEW012 SCT024 PROB40 TEMPO 2812/2815 6000 RA BKN010 PROB30 TEMPO 2815/2821 8000 -SHRA BKN012 TEMPO 2821/2912 7000 -RA BKN012 PROB30 TEMPO 2822/2910 4000 RA SHRA BKN008 BECMG 2909/2912 28010KT PROB40 TEMPO 2910/2912 2000 +RA BKN004